Terminal Aerodrome Forecast
Issued by NWS Twin Cities, MN

Home | Current Version | Previous Version | Text Only | Print | Product List | Glossary Off
Versions: 1 2 3 4 5 6 7 8 9 10 11 12 13 14 15 16 17 18 19

000
FTUS43 KMPX 221700
TAFEAU
TAF
KEAU 221739Z 2218/2318 29009KT P6SM SCT035
      TEMPO 2218/2220 BKN025
     FM230000 24004KT P6SM SKC
     FM230500 VRB03KT P6SM SKC
     FM230900 VRB03KT 2SM BR SKC
      TEMPO 2310/2313 1/2SM FG VV002
     FM231400 18005KT P6SM SKC=

USA.gov is the U.S. government's official web portal to all federal, state and local government web resources and services.